Time;durP1;ratioP1;P1;durP2;ratioP2;P2;SDS_P1;SDS_P2;PMS_P1;PMS_P2;Temp;Humidity;BMP_temperature;BMP_pressure;BME280_temperature;BME280_humidity;BME280_pressure;Samples;Min_cycle;Max_cycle;Signal;HPM_P1;HPM_P2
2021/12/10 00:00:33;;;;;;;76.60;37.50;;;4.80;99.90;;;;;;6187563;23;20009;-71
2021/12/10 00:03:00;;;;;;;68.85;37.20;;;4.80;99.90;;;;;;6175178;23;20021;-71
2021/12/10 00:05:34;;;;;;;72.22;35.05;;;4.70;99.90;;;;;;6187103;23;20017;-72
2021/12/10 00:08:00;;;;;;;65.37;34.20;;;4.80;99.90;;;;;;6187587;23;20350;-69
2021/12/10 00:10:33;;;;;;;64.68;33.65;;;4.80;99.90;;;;;;6187780;23;20053;-70
2021/12/10 00:13:00;;;;;;;71.05;33.90;;;4.90;99.90;;;;;;6187166;23;20429;-70
2021/12/10 00:15:28;;;;;;;62.85;33.65;;;4.80;99.90;;;;;;6187661;23;20017;-70
2021/12/10 00:17:56;;;;;;;63.10;32.10;;;4.80;99.90;;;;;;6186774;23;20072;-71
2021/12/10 00:20:24;;;;;;;72.20;35.83;;;4.90;99.90;;;;;;6187315;23;20096;-70
2021/12/10 00:22:57;;;;;;;62.85;32.00;;;4.90;99.90;;;;;;6187672;23;20021;-69
2021/12/10 00:25:33;;;;;;;65.57;31.95;;;4.80;99.90;;;;;;6187435;23;20028;-70
2021/12/10 00:28:02;;;;;;;56.85;29.77;;;4.90;99.90;;;;;;6161709;23;20313;-70
2021/12/10 00:30:39;;;;;;;61.70;33.90;;;4.90;99.90;;;;;;6186854;23;20021;-70
2021/12/10 00:33:13;;;;;;;56.40;28.55;;;4.80;99.90;;;;;;6187472;23;20032;-70
2021/12/10 00:35:41;;;;;;;56.13;30.67;;;4.90;99.90;;;;;;6187380;23;20021;-70
2021/12/10 00:38:08;;;;;;;67.45;30.85;;;4.90;99.90;;;;;;6187322;23;20028;-71
2021/12/10 00:40:35;;;;;;;62.38;31.48;;;4.90;99.90;;;;;;6187368;23;20401;-71
2021/12/10 00:43:01;;;;;;;51.15;27.08;;;4.90;99.90;;;;;;6187071;23;20020;-71
2021/12/10 00:45:28;;;;;;;49.83;28.33;;;4.90;99.90;;;;;;6187036;23;20104;-71
2021/12/10 00:47:54;;;;;;;50.25;26.77;;;4.90;99.90;;;;;;6187476;23;20021;-71
2021/12/10 00:50:29;;;;;;;48.03;27.48;;;4.90;99.90;;;;;;6187551;23;20095;-72
2021/12/10 00:52:55;;;;;;;58.47;27.73;;;5.00;99.90;;;;;;6187294;23;20059;-69
2021/12/10 00:55:23;;;;;;;54.50;29.20;;;4.90;99.90;;;;;;6161324;23;20021;-70
2021/12/10 00:57:50;;;;;;;53.35;28.88;;;4.90;99.90;;;;;;6187209;23;20013;-71
2021/12/10 01:00:25;;;;;;;60.20;32.17;;;4.90;99.90;;;;;;6187125;23;20017;-70
2021/12/10 01:02:51;;;;;;;54.88;29.08;;;5.00;99.90;;;;;;6189151;23;20373;-71
2021/12/10 01:05:20;;;;;;;50.47;28.75;;;5.00;99.90;;;;;;6188046;23;20017;-71
2021/12/10 01:07:47;;;;;;;50.60;29.95;;;4.90;99.90;;;;;;6189645;23;20263;-71
2021/12/10 01:10:22;;;;;;;54.80;28.90;;;5.00;99.90;;;;;;6188776;23;20025;-71
2021/12/10 01:12:52;;;;;;;46.65;27.80;;;5.00;99.90;;;;;;6189529;23;20017;-71
2021/12/10 01:24:32;;;;;;;47.05;24.38;;;5.00;99.90;;;;;;6188663;23;20040;-72
2021/12/10 01:27:07;;;;;;;41.55;24.52;;;5.00;99.90;;;;;;6188540;23;20047;-71
2021/12/10 01:29:43;;;;;;;45.67;23.17;;;5.00;99.90;;;;;;6188641;23;20091;-71
2021/12/10 01:32:12;;;;;;;48.50;25.73;;;5.00;99.90;;;;;;6162975;23;20020;-72
2021/12/10 01:34:38;;;;;;;46.38;24.80;;;4.90;99.90;;;;;;6188869;23;20478;-71
2021/12/10 01:37:05;;;;;;;39.78;23.60;;;4.90;99.90;;;;;;6188970;23;20017;-71
2021/12/10 01:39:34;;;;;;;42.17;24.77;;;5.00;99.90;;;;;;6188569;23;20733;-71
2021/12/10 01:42:15;;;;;;;46.50;25.73;;;5.00;99.90;;;;;;6189010;23;20309;-70
2021/12/10 01:44:44;;;;;;;41.22;24.92;;;4.90;99.90;;;;;;6188577;23;20013;-71
2021/12/10 01:47:14;;;;;;;50.75;25.35;;;4.90;99.90;;;;;;6188958;23;20024;-71
2021/12/10 01:49:40;;;;;;;43.10;26.83;;;4.90;99.90;;;;;;6188462;23;20092;-70
2021/12/10 01:52:07;;;;;;;50.50;27.88;;;4.90;99.90;;;;;;6188516;23;20028;-70
2021/12/10 01:54:41;;;;;;;55.30;28.65;;;4.90;99.90;;;;;;6189282;23;20009;-71
2021/12/10 01:57:08;;;;;;;53.77;27.60;;;5.00;99.90;;;;;;6188543;23;20103;-72
2021/12/10 01:59:36;;;;;;;52.45;28.13;;;5.00;99.90;;;;;;6188475;23;20275;-71
2021/12/10 02:02:09;;;;;;;51.42;28.80;;;4.90;99.90;;;;;;6188738;23;20353;-71
2021/12/10 02:04:37;;;;;;;57.08;27.50;;;5.00;99.90;;;;;;6188356;23;20017;-70
2021/12/10 02:07:05;;;;;;;48.92;28.20;;;4.90;99.90;;;;;;6188671;23;20309;-70
2021/12/10 02:09:30;;;;;;;48.08;27.88;;;5.00;99.90;;;;;;6188405;23;20028;-71
2021/12/10 02:11:56;;;;;;;51.95;27.63;;;5.00;99.90;;;;;;6188177;23;20017;-71
2021/12/10 02:14:23;;;;;;;51.33;25.98;;;4.90;99.90;;;;;;6188383;23;20044;-70
2021/12/10 02:16:51;;;;;;;47.25;27.95;;;4.90;99.90;;;;;;6188119;23;20025;-71
2021/12/10 02:19:17;;;;;;;49.42;25.58;;;4.90;99.90;;;;;;6188061;23;20461;-70
2021/12/10 02:21:43;;;;;;;43.10;25.83;;;4.90;99.90;;;;;;6187205;23;20013;-71
2021/12/10 02:24:10;;;;;;;48.72;27.42;;;5.00;99.90;;;;;;6188538;23;20021;-69
2021/12/10 02:26:46;;;;;;;49.03;25.08;;;4.90;99.90;;;;;;6188380;23;20013;-71
2021/12/10 02:29:13;;;;;;;41.38;25.23;;;5.00;99.90;;;;;;6188673;23;20020;-69
2021/12/10 02:31:40;;;;;;;43.88;26.00;;;5.00;99.90;;;;;;6188225;23;20155;-70
2021/12/10 02:34:06;;;;;;;44.33;22.73;;;5.00;99.90;;;;;;6188015;23;20402;-70
2021/12/10 02:36:32;;;;;;;41.85;23.08;;;5.00;99.90;;;;;;6188269;23;20056;-71
2021/12/10 02:38:58;;;;;;;34.00;22.00;;;5.00;99.90;;;;;;6188333;23;20024;-71
2021/12/10 02:41:28;;;;;;;37.00;21.73;;;5.00;99.90;;;;;;6188282;23;20083;-70
2021/12/10 02:43:55;;;;;;;34.10;20.35;;;5.00;99.90;;;;;;6187988;23;20047;-71
2021/12/10 02:46:21;;;;;;;32.95;19.88;;;4.90;99.90;;;;;;6187895;23;20021;-70
2021/12/10 02:48:46;;;;;;;37.47;22.02;;;4.90;99.90;;;;;;6188099;23;20290;-70
2021/12/10 02:51:12;;;;;;;47.17;23.58;;;4.90;99.90;;;;;;6188191;23;20013;-71
2021/12/10 02:53:43;;;;;;;39.97;20.77;;;5.00;99.90;;;;;;6188123;23;20024;-70
2021/12/10 02:56:11;;;;;;;36.40;20.45;;;4.90;99.90;;;;;;6187566;23;20471;-72
2021/12/10 02:58:37;;;;;;;30.65;19.00;;;4.90;99.90;;;;;;6186808;23;20021;-73
2021/12/10 03:01:11;;;;;;;35.63;19.13;;;4.90;99.90;;;;;;6187948;23;20491;-70
2021/12/10 03:03:39;;;;;;;32.28;18.08;;;5.00;99.90;;;;;;6188106;23;20366;-71
2021/12/10 03:06:11;;;;;;;33.75;19.45;;;4.90;99.90;;;;;;6188624;23;20012;-71
2021/12/10 03:08:40;;;;;;;34.03;19.77;;;4.90;99.90;;;;;;6187938;23;20305;-72
2021/12/10 03:11:05;;;;;;;35.42;20.10;;;4.90;99.90;;;;;;6187618;23;20301;-70
2021/12/10 03:13:31;;;;;;;34.83;19.50;;;4.90;99.90;;;;;;6187970;23;20027;-72
2021/12/10 03:15:57;;;;;;;30.10;18.33;;;4.90;99.90;;;;;;6187999;23;20287;-71
2021/12/10 03:18:23;;;;;;;33.35;18.30;;;4.90;99.90;;;;;;6188193;23;20017;-71
2021/12/10 03:20:49;;;;;;;33.30;18.70;;;4.90;99.90;;;;;;6188129;23;20455;-71
2021/12/10 03:23:15;;;;;;;29.67;18.80;;;4.80;99.90;;;;;;6187618;23;20329;-72
2021/12/10 03:25:41;;;;;;;31.52;17.40;;;4.80;99.90;;;;;;6187583;23;20017;-72
2021/12/10 03:28:08;;;;;;;30.42;18.23;;;4.80;99.90;;;;;;6162024;23;20025;-70
2021/12/10 03:30:43;;;;;;;39.28;18.02;;;4.80;99.90;;;;;;6187727;23;20020;-71
2021/12/10 03:33:08;;;;;;;36.92;18.60;;;4.80;99.90;;;;;;6188010;23;20372;-71
2021/12/10 03:35:41;;;;;;;32.95;19.75;;;4.70;99.90;;;;;;6187715;23;20017;-70
2021/12/10 03:38:11;;;;;;;34.33;18.40;;;4.70;99.90;;;;;;6187038;23;20421;-72
2021/12/10 03:40:37;;;;;;;28.98;18.88;;;4.70;99.90;;;;;;6187773;23;20079;-71
2021/12/10 03:43:04;;;;;;;32.10;18.02;;;4.70;99.90;;;;;;6187367;23;20441;-71
2021/12/10 03:45:37;;;;;;;28.20;16.67;;;4.70;99.90;;;;;;6187582;23;20016;-72
2021/12/10 03:48:11;;;;;;;36.15;18.08;;;4.70;99.90;;;;;;6187673;23;20017;-70
2021/12/10 03:50:37;;;;;;;38.97;19.30;;;4.60;99.90;;;;;;6161679;23;20370;-69
2021/12/10 03:53:03;;;;;;;33.28;19.85;;;4.60;99.90;;;;;;6161436;23;20025;-71
2021/12/10 03:55:29;;;;;;;30.13;18.00;;;4.60;99.90;;;;;;6187133;23;20039;-71
2021/12/10 03:57:57;;;;;;;32.28;18.65;;;4.50;99.90;;;;;;6187474;23;20024;-72
2021/12/10 04:00:26;;;;;;;30.88;19.20;;;4.50;99.90;;;;;;6187611;23;20032;-70
2021/12/10 04:02:52;;;;;;;32.45;19.60;;;4.50;99.90;;;;;;6187584;23;20020;-72
2021/12/10 04:05:18;;;;;;;37.30;21.55;;;4.50;99.90;;;;;;6187518;23;20417;-71
2021/12/10 04:07:43;;;;;;;33.97;19.35;;;4.50;99.90;;;;;;6187193;23;20021;-71
2021/12/10 04:10:11;;;;;;;33.45;20.70;;;4.50;99.90;;;;;;6187257;23;20320;-70
2021/12/10 04:12:37;;;;;;;30.10;18.55;;;4.50;99.90;;;;;;6187557;23;20075;-70
2021/12/10 04:15:05;;;;;;;33.38;20.50;;;4.50;99.90;;;;;;6187768;23;20024;-70
2021/12/10 04:17:31;;;;;;;38.15;21.33;;;4.40;99.90;;;;;;6187494;23;20013;-70
2021/12/10 04:19:57;;;;;;;35.60;18.48;;;4.40;99.90;;;;;;6187329;23;20430;-71
2021/12/10 04:22:24;;;;;;;33.50;19.58;;;4.40;99.90;;;;;;6187335;23;20021;-70
2021/12/10 04:24:50;;;;;;;27.67;19.33;;;4.40;99.90;;;;;;6161936;23;20279;-70
2021/12/10 04:27:18;;;;;;;25.45;18.77;;;4.30;99.90;;;;;;6187530;23;20033;-72
2021/12/10 04:29:45;;;;;;;30.63;19.08;;;4.20;99.90;;;;;;6187332;23;20013;-70
2021/12/10 04:32:12;;;;;;;28.98;17.48;;;4.20;99.90;;;;;;6187408;23;20009;-69
2021/12/10 04:34:39;;;;;;;26.88;17.77;;;4.10;99.90;;;;;;6161488;23;20024;-71
2021/12/10 04:37:07;;;;;;;36.33;20.48;;;4.10;99.90;;;;;;6189187;23;20013;-70
2021/12/10 04:39:34;;;;;;;32.97;19.27;;;4.00;99.90;;;;;;6189403;23;20095;-71
2021/12/10 04:42:00;;;;;;;27.08;18.38;;;4.00;99.90;;;;;;6189498;23;20009;-70
2021/12/10 04:44:27;;;;;;;32.75;19.30;;;3.90;99.90;;;;;;6189429;23;20100;-70
2021/12/10 04:46:52;;;;;;;35.90;18.58;;;3.90;99.90;;;;;;6189353;23;20031;-71
2021/12/10 04:49:18;;;;;;;31.25;18.90;;;3.90;99.90;;;;;;6189148;23;20045;-71
2021/12/10 04:51:49;;;;;;;37.25;20.25;;;3.80;99.90;;;;;;6188899;23;20017;-70
2021/12/10 04:54:17;;;;;;;33.53;19.50;;;3.90;99.90;;;;;;6189203;23;20021;-71
2021/12/10 04:56:43;;;;;;;33.70;19.33;;;3.70;99.90;;;;;;6189009;23;20031;-70
2021/12/10 04:59:11;;;;;;;34.95;19.52;;;3.70;99.90;;;;;;6189076;23;20102;-72
2021/12/10 05:01:38;;;;;;;33.40;18.92;;;3.70;99.90;;;;;;6188919;23;20024;-71
2021/12/10 05:04:07;;;;;;;35.28;19.08;;;3.70;99.90;;;;;;6162880;23;20424;-70
2021/12/10 05:06:36;;;;;;;27.65;18.90;;;3.70;99.90;;;;;;6189227;23;20047;-71
2021/12/10 05:09:05;;;;;;;31.60;19.45;;;3.60;99.90;;;;;;6163409;23;20048;-71
2021/12/10 05:11:30;;;;;;;32.30;17.85;;;3.60;99.90;;;;;;6188614;23;20021;-71
2021/12/10 05:13:56;;;;;;;28.65;17.38;;;3.60;99.90;;;;;;6189193;23;20099;-70
2021/12/10 05:16:25;;;;;;;30.13;18.00;;;3.60;99.90;;;;;;6187936;23;20437;-70
2021/12/10 05:18:57;;;;;;;30.20;18.13;;;3.60;99.90;;;;;;6189043;23;20029;-69
2021/12/10 05:21:26;;;;;;;33.78;19.00;;;3.50;99.90;;;;;;6189224;23;20017;-70
2021/12/10 05:23:51;;;;;;;29.27;17.65;;;3.60;99.90;;;;;;6188728;23;20017;-70
2021/12/10 05:26:19;;;;;;;29.17;16.60;;;3.60;99.90;;;;;;6189251;23;20017;-70
2021/12/10 05:28:45;;;;;;;32.50;17.15;;;3.50;99.90;;;;;;6188584;23;20017;-69
2021/12/10 05:31:10;;;;;;;33.97;19.20;;;3.40;99.90;;;;;;6188614;23;20498;-71
2021/12/10 05:33:36;;;;;;;35.28;18.25;;;3.50;99.90;;;;;;6188914;23;20096;-70
2021/12/10 05:36:02;;;;;;;34.92;18.20;;;3.40;99.90;;;;;;6188803;23;20017;-72
2021/12/10 05:38:28;;;;;;;31.30;16.92;;;3.50;99.90;;;;;;6188848;23;20330;-72
2021/12/10 05:40:55;;;;;;;28.25;17.98;;;3.50;99.90;;;;;;6188881;23;20021;-73
2021/12/10 05:43:22;;;;;;;30.08;18.15;;;3.40;99.90;;;;;;6188485;23;20306;-71
2021/12/10 05:45:48;;;;;;;29.40;16.95;;;3.40;99.90;;;;;;6188335;23;20017;-71
2021/12/10 05:48:14;;;;;;;29.98;18.40;;;3.40;99.90;;;;;;6188404;23;20024;-70
2021/12/10 05:50:41;;;;;;;33.92;17.15;;;3.40;99.90;;;;;;6188636;23;20021;-70
2021/12/10 05:53:07;;;;;;;35.85;18.33;;;3.40;99.90;;;;;;6188770;23;20017;-71
2021/12/10 05:55:34;;;;;;;26.20;17.17;;;3.30;99.90;;;;;;6188786;23;20375;-69
2021/12/10 05:58:00;;;;;;;35.85;18.67;;;3.40;99.90;;;;;;6188306;23;20013;-70
2021/12/10 06:00:37;;;;;;;26.35;16.02;;;3.30;99.90;;;;;;6188355;23;20013;-70
2021/12/10 06:03:03;;;;;;;27.95;17.67;;;3.30;99.90;;;;;;6188490;23;20035;-70
2021/12/10 06:05:31;;;;;;;28.67;17.80;;;3.40;99.90;;;;;;6188442;23;20035;-72
2021/12/10 06:07:57;;;;;;;27.13;17.83;;;3.30;99.90;;;;;;6188411;23;20013;-69
2021/12/10 06:10:24;;;;;;;28.30;18.13;;;3.30;99.90;;;;;;6188320;23;20017;-70
2021/12/10 06:12:51;;;;;;;32.22;18.13;;;3.30;99.90;;;;;;6187709;23;20417;-71
2021/12/10 06:15:20;;;;;;;35.55;19.25;;;3.30;99.90;;;;;;6188500;23;20021;-71
2021/12/10 06:17:47;;;;;;;34.83;18.38;;;3.40;99.90;;;;;;6188012;23;20291;-70
2021/12/10 06:20:18;;;;;;;34.70;20.35;;;3.30;99.90;;;;;;6188504;23;20021;-71
2021/12/10 06:22:44;;;;;;;33.00;20.92;;;3.30;99.90;;;;;;6162025;23;20444;-71
2021/12/10 06:25:09;;;;;;;33.50;20.27;;;3.30;99.90;;;;;;6188108;23;20009;-70
2021/12/10 06:27:38;;;;;;;34.38;20.15;;;3.30;99.90;;;;;;6187839;23;20029;-70
2021/12/10 06:30:05;;;;;;;38.60;22.55;;;3.30;99.90;;;;;;6188316;23;20021;-70
2021/12/10 06:32:30;;;;;;;37.35;22.08;;;3.30;99.90;;;;;;6188410;23;20017;-70
2021/12/10 06:34:56;;;;;;;30.65;20.77;;;3.40;99.90;;;;;;6187379;23;20027;-71
2021/12/10 06:37:24;;;;;;;34.38;21.75;;;3.40;99.90;;;;;;6187991;23;20091;-71
2021/12/10 06:39:50;;;;;;;35.33;22.42;;;3.50;99.90;;;;;;6187537;23;20023;-70
2021/12/10 06:42:15;;;;;;;32.85;21.95;;;3.50;99.90;;;;;;6188235;23;20084;-71
2021/12/10 06:44:41;;;;;;;33.05;22.58;;;3.50;99.90;;;;;;6187252;23;20025;-70
2021/12/10 06:47:08;;;;;;;31.95;22.75;;;3.50;99.90;;;;;;6187733;23;20089;-70
2021/12/10 06:49:34;;;;;;;35.58;21.67;;;3.60;99.90;;;;;;6188046;23;20009;-71
2021/12/10 06:52:01;;;;;;;31.08;21.33;;;3.60;99.90;;;;;;6187673;23;20088;-70
2021/12/10 06:54:28;;;;;;;34.30;22.85;;;3.60;99.90;;;;;;6188073;23;20404;-69
2021/12/10 06:56:56;;;;;;;34.35;21.92;;;3.60;99.90;;;;;;6187650;23;20424;-71
2021/12/10 06:59:24;;;;;;;33.47;22.42;;;3.60;99.90;;;;;;6162014;23;20027;-71
2021/12/10 07:01:50;;;;;;;28.90;21.13;;;3.60;99.90;;;;;;6187642;23;20028;-70
2021/12/10 07:04:16;;;;;;;34.15;19.48;;;3.60;99.90;;;;;;6187597;23;20109;-70
2021/12/10 07:06:44;;;;;;;38.55;20.73;;;3.60;99.90;;;;;;6187523;23;20032;-70
2021/12/10 07:09:17;;;;;;;30.27;18.95;;;3.60;99.90;;;;;;6187458;23;20344;-70
2021/12/10 07:11:44;;;;;;;30.48;18.98;;;3.60;99.90;;;;;;6187868;23;20021;-71
2021/12/10 07:14:10;;;;;;;32.38;18.90;;;3.60;99.90;;;;;;6162032;23;20021;-72
2021/12/10 07:16:36;;;;;;;30.63;18.00;;;3.60;99.90;;;;;;6187200;23;20324;-70
2021/12/10 07:19:05;;;;;;;25.15;17.15;;;3.60;99.90;;;;;;6187742;23;20017;-70
2021/12/10 07:21:32;;;;;;;30.25;17.33;;;3.50;99.90;;;;;;6187558;23;20021;-72
2021/12/10 07:24:02;;;;;;;27.75;18.25;;;3.50;99.90;;;;;;6187352;23;20079;-70
2021/12/10 07:26:28;;;;;;;32.97;19.33;;;3.50;99.90;;;;;;6187838;23;20036;-69
2021/12/10 07:28:54;;;;;;;31.17;18.65;;;3.50;99.90;;;;;;6187583;23;20016;-70
2021/12/10 07:31:21;;;;;;;31.23;19.42;;;3.50;99.90;;;;;;6188052;23;20017;-71
2021/12/10 07:33:46;;;;;;;31.08;19.73;;;3.50;99.90;;;;;;6186857;23;20020;-69
2021/12/10 07:36:15;;;;;;;30.88;19.35;;;3.40;99.90;;;;;;6187317;23;20422;-70
2021/12/10 07:38:41;;;;;;;35.25;19.88;;;3.40;99.90;;;;;;6187542;23;20108;-71
2021/12/10 07:41:07;;;;;;;29.95;19.25;;;3.50;99.90;;;;;;6187572;23;20032;-71
2021/12/10 07:43:34;;;;;;;26.23;18.08;;;3.50;99.90;;;;;;6187635;23;20013;-70
2021/12/10 07:46:00;;;;;;;28.67;18.08;;;3.40;99.90;;;;;;6161786;23;20013;-71
2021/12/10 07:48:27;;;;;;;26.33;18.20;;;3.40;99.90;;;;;;6187288;23;20083;-70
2021/12/10 07:51:00;;;;;;;31.77;19.20;;;3.40;99.90;;;;;;6187260;23;20009;-70
2021/12/10 07:53:29;;;;;;;27.00;18.45;;;3.40;99.90;;;;;;6187423;23;20017;-70
2021/12/10 07:55:56;;;;;;;34.08;19.15;;;3.40;99.90;;;;;;6187503;23;20078;-70
2021/12/10 07:58:22;;;;;;;30.00;19.67;;;3.40;99.90;;;;;;6161546;23;20032;-70
2021/12/10 08:00:49;;;;;;;26.88;19.25;;;3.40;99.90;;;;;;6161592;23;20021;-71
2021/12/10 08:03:15;;;;;;;28.02;19.33;;;3.40;99.90;;;;;;6160871;23;20031;-69
2021/12/10 08:05:42;;;;;;;27.83;18.52;;;3.40;99.90;;;;;;6187421;23;20053;-72
2021/12/10 08:08:09;;;;;;;27.25;17.75;;;3.40;99.90;;;;;;6187367;23;20025;-71
2021/12/10 08:10:36;;;;;;;31.95;18.65;;;3.40;99.90;;;;;;6187049;23;20028;-71
2021/12/10 08:13:03;;;;;;;24.58;16.67;;;3.30;99.90;;;;;;6187373;23;20317;-72
2021/12/10 08:15:29;;;;;;;27.88;17.88;;;3.40;99.90;;;;;;6161584;23;20025;-69
2021/12/10 08:17:54;;;;;;;29.40;17.98;;;3.30;99.90;;;;;;6187161;23;20021;-71
2021/12/10 08:20:26;;;;;;;33.10;17.83;;;3.30;99.90;;;;;;6187450;23;20073;-70
2021/12/10 08:22:53;;;;;;;25.35;17.00;;;3.30;99.90;;;;;;6187468;23;20017;-73
2021/12/10 08:25:22;;;;;;;25.52;16.85;;;3.30;99.90;;;;;;6187210;23;20100;-70
2021/12/10 08:27:49;;;;;;;26.88;16.00;;;3.30;99.90;;;;;;6187386;23;20067;-72
2021/12/10 08:30:17;;;;;;;23.73;15.70;;;3.30;99.90;;;;;;6187088;23;20344;-72
2021/12/10 08:32:43;;;;;;;23.20;16.65;;;3.30;99.90;;;;;;6187378;23;20017;-73
2021/12/10 08:35:12;;;;;;;24.02;14.63;;;3.30;99.90;;;;;;6187038;23;20484;-71
2021/12/10 08:37:38;;;;;;;23.58;14.93;;;3.30;99.90;;;;;;6161310;23;20478;-71
2021/12/10 08:40:07;;;;;;;22.48;14.68;;;3.30;99.90;;;;;;6187377;23;20067;-72
2021/12/10 08:42:33;;;;;;;27.08;15.02;;;3.30;99.90;;;;;;6187188;23;20024;-69
2021/12/10 08:44:59;;;;;;;23.33;14.90;;;3.30;99.90;;;;;;6186083;23;20029;-70
2021/12/10 08:47:25;;;;;;;25.85;14.45;;;3.40;99.90;;;;;;6185878;23;20052;-72
2021/12/10 08:49:50;;;;;;;26.83;15.50;;;3.40;99.90;;;;;;6187496;23;20032;-73
2021/12/10 08:52:18;;;;;;;25.95;14.98;;;3.40;99.90;;;;;;6186995;23;20021;-73
2021/12/10 08:54:45;;;;;;;21.08;13.85;;;3.30;99.90;;;;;;6187002;23;20425;-73
2021/12/10 08:57:11;;;;;;;23.08;13.95;;;3.40;99.90;;;;;;6186524;23;20089;-71
2021/12/10 08:59:38;;;;;;;22.90;14.02;;;3.40;99.90;;;;;;6161071;23;20401;-72
2021/12/10 09:02:13;;;;;;;20.25;14.30;;;3.50;99.90;;;;;;6161210;23;20149;-75
2021/12/10 09:04:40;;;;;;;17.02;12.32;;;3.50;99.90;;;;;;6187310;23;20032;-75
2021/12/10 09:07:10;;;;;;;22.98;13.65;;;3.50;99.90;;;;;;6187364;23;20021;-71
2021/12/10 09:09:40;;;;;;;19.88;12.98;;;3.50;99.90;;;;;;6187032;23;20023;-71
2021/12/10 09:12:11;;;;;;;24.50;14.40;;;3.50;99.90;;;;;;6186881;23;20021;-72
2021/12/10 09:14:43;;;;;;;21.55;12.88;;;3.50;99.90;;;;;;6186568;23;20059;-72
2021/12/10 09:17:10;;;;;;;18.52;12.48;;;3.50;99.90;;;;;;6161235;23;20068;-72
2021/12/10 09:19:37;;;;;;;19.27;13.07;;;3.50;99.90;;;;;;6186982;23;20079;-71
2021/12/10 09:22:04;;;;;;;24.15;13.52;;;3.50;99.90;;;;;;6187873;23;20337;-72
2021/12/10 09:24:30;;;;;;;22.70;12.68;;;3.50;99.90;;;;;;6188525;23;20317;-70
2021/12/10 09:26:58;;;;;;;16.60;11.93;;;3.50;99.90;;;;;;6188290;23;20016;-72
2021/12/10 09:29:28;;;;;;;19.60;11.95;;;3.50;99.90;;;;;;6188939;23;20035;-71
2021/12/10 09:31:54;;;;;;;21.27;12.30;;;3.50;99.90;;;;;;6162620;23;20441;-70
2021/12/10 09:34:21;;;;;;;21.20;12.77;;;3.50;99.90;;;;;;6188874;23;20080;-74
2021/12/10 09:36:47;;;;;;;18.48;13.13;;;3.50;99.90;;;;;;6189029;23;20045;-73
2021/12/10 09:39:15;;;;;;;21.10;11.82;;;3.60;99.90;;;;;;6188303;23;20084;-72
2021/12/10 09:41:41;;;;;;;22.95;12.27;;;3.60;99.90;;;;;;6188831;23;20020;-71
2021/12/10 09:44:07;;;;;;;20.52;11.05;;;3.50;99.90;;;;;;6188643;23;20424;-73
2021/12/10 09:46:35;;;;;;;18.88;11.60;;;3.50;99.90;;;;;;6188768;23;20020;-72
2021/12/10 09:49:03;;;;;;;19.83;12.40;;;3.60;99.90;;;;;;6188242;23;20028;-74
2021/12/10 09:51:37;;;;;;;16.23;10.32;;;3.50;99.90;;;;;;6188540;23;20052;-73
2021/12/10 09:54:10;;;;;;;;;;;3.60;99.90;;;;;;6162787;23;20025;-73
2021/12/10 09:56:37;;;;;;;17.77;11.57;;;3.60;99.90;;;;;;6188609;23;20225;-71
2021/12/10 09:59:04;;;;;;;19.42;11.20;;;3.60;99.90;;;;;;6188511;23;20086;-72
2021/12/10 10:01:33;;;;;;;20.40;11.40;;;3.60;99.90;;;;;;6188334;23;20027;-73
2021/12/10 10:04:01;;;;;;;17.83;11.13;;;3.60;99.90;;;;;;6188418;23;20031;-71
2021/12/10 10:06:40;;;;;;;17.10;10.25;;;3.70;99.90;;;;;;6188310;23;20017;-71
2021/12/10 10:09:08;;;;;;;15.45;10.32;;;3.70;99.90;;;;;;6188447;23;20028;-70
2021/12/10 10:11:35;;;;;;;16.30;10.98;;;3.70;99.90;;;;;;6188461;23;20131;-73
2021/12/10 10:14:03;;;;;;;18.55;11.38;;;3.70;99.90;;;;;;6188507;23;20045;-72
2021/12/10 10:16:33;;;;;;;17.15;10.00;;;3.70;99.90;;;;;;6187861;23;20025;-72
2021/12/10 10:18:59;;;;;;;16.80;10.50;;;3.80;99.90;;;;;;6162093;23;20416;-73
2021/12/10 10:21:48;;;;;;;15.70;9.80;;;3.80;99.90;;;;;;6188508;23;20090;-74
2021/12/10 10:24:15;;;;;;;15.38;9.57;;;3.80;99.90;;;;;;6162483;23;20143;-73
2021/12/10 10:26:48;;;;;;;16.13;9.02;;;3.90;99.90;;;;;;6188489;23;20017;-71
2021/12/10 10:29:18;;;;;;;14.10;9.00;;;3.90;99.90;;;;;;6162176;23;20024;-71
2021/12/10 10:31:51;;;;;;;16.23;9.40;;;3.90;99.90;;;;;;6188674;23;20032;-70
2021/12/10 10:34:18;;;;;;;14.30;8.90;;;4.00;99.90;;;;;;6162010;23;20058;-70
2021/12/10 10:36:45;;;;;;;18.95;9.18;;;3.90;99.90;;;;;;6188111;23;20025;-71
2021/12/10 10:39:24;;;;;;;17.40;9.60;;;4.00;99.90;;;;;;6161730;23;20054;-71
2021/12/10 10:41:54;;;;;;;16.25;9.45;;;4.10;99.90;;;;;;6137321;23;20049;-70
2021/12/10 10:44:21;;;;;;;17.55;9.13;;;4.10;99.90;;;;;;6162307;23;20428;-71
2021/12/10 10:46:49;;;;;;;13.18;8.57;;;4.10;99.90;;;;;;6162016;23;20432;-72
2021/12/10 10:49:34;;;;;;;28.77;9.73;;;4.10;99.90;;;;;;6162119;23;20048;-67
2021/12/10 10:52:35;;;;;;;76.25;13.52;;;4.20;99.90;;;;;;6188150;23;20017;-72
2021/12/10 10:55:14;;;;;;;29.90;10.15;;;4.20;99.90;;;;;;6139665;23;20013;-71
2021/12/10 10:57:53;;;;;;;43.20;11.18;;;4.20;99.90;;;;;;6161559;23;20079;-69
2021/12/10 11:00:24;;;;;;;45.20;11.82;;;4.30;99.90;;;;;;6187017;23;20372;-71
2021/12/10 11:02:53;;;;;;;19.77;8.73;;;4.40;99.90;;;;;;6187350;23;20044;-72
2021/12/10 11:05:22;;;;;;;14.98;8.98;;;4.30;99.90;;;;;;6188003;23;20362;-71
2021/12/10 11:07:51;;;;;;;24.40;10.18;;;4.40;99.90;;;;;;6188262;23;20013;-69
2021/12/10 11:10:45;;;;;;;15.38;8.63;;;4.50;99.90;;;;;;6187529;23;20071;-71
2021/12/10 11:13:21;;;;;;;16.92;9.02;;;4.50;99.90;;;;;;6183874;23;20032;-71
2021/12/10 11:16:04;;;;;;;14.95;8.52;;;4.50;99.90;;;;;;6187835;23;20417;-70
2021/12/10 11:18:44;;;;;;;15.98;9.32;;;4.60;99.90;;;;;;6188164;23;20079;-73
2021/12/10 11:21:10;;;;;;;16.13;9.23;;;4.60;99.90;;;;;;6187883;23;20013;-72
2021/12/10 11:23:39;;;;;;;12.60;8.35;;;4.60;99.90;;;;;;6135772;23;20376;-71
2021/12/10 11:26:06;;;;;;;16.17;8.63;;;4.70;99.90;;;;;;6187366;23;20027;-71
2021/12/10 11:28:36;;;;;;;11.52;8.18;;;4.70;99.90;;;;;;6161760;23;20063;-72
2021/12/10 11:31:09;;;;;;;17.08;9.63;;;4.80;99.90;;;;;;6187499;23;20340;-71
2021/12/10 11:33:44;;;;;;;15.00;8.60;;;4.80;99.90;;;;;;6187684;23;20365;-72
2021/12/10 11:36:14;;;;;;;19.50;8.65;;;4.80;99.90;;;;;;6187528;23;20017;-71
2021/12/10 11:38:41;;;;;;;16.83;8.70;;;4.90;99.90;;;;;;6161595;23;20123;-73
2021/12/10 11:41:21;;;;;;;13.57;8.38;;;4.90;99.90;;;;;;6187999;23;20013;-74
2021/12/10 11:44:18;;;;;;;14.48;8.15;;;5.00;99.90;;;;;;6187414;23;20071;-72
2021/12/10 11:49:39;;;;;;;16.58;8.32;;;5.00;99.90;;;;;;6187460;23;20310;-74
2021/12/10 11:52:21;;;;;;;12.18;8.50;;;5.00;99.90;;;;;;6187099;23;20024;-72
2021/12/10 11:55:07;;;;;;;17.58;8.55;;;5.10;99.90;;;;;;6187407;23;20016;-73
2021/12/10 11:57:36;;;;;;;13.82;7.50;;;5.10;99.90;;;;;;6187335;23;20063;-72
2021/12/10 12:00:18;;;;;;;15.05;8.10;;;5.10;99.90;;;;;;6187746;23;20046;-71
2021/12/10 12:02:58;;;;;;;15.10;8.00;;;5.10;99.90;;;;;;6187519;23;20313;-72
2021/12/10 12:05:28;;;;;;;11.07;7.95;;;5.20;99.90;;;;;;6187298;23;20059;-72
2021/12/10 12:07:57;;;;;;;13.85;7.30;;;5.20;99.90;;;;;;6187815;23;20025;-71
2021/12/10 12:10:36;;;;;;;12.88;7.10;;;5.20;99.90;;;;;;6186892;23;20024;-72
2021/12/10 12:15:56;;;;;;;16.77;7.75;;;5.20;99.90;;;;;;6186943;23;20294;-72
2021/12/10 12:18:37;;;;;;;14.88;8.60;;;5.30;99.90;;;;;;6187094;23;20140;-72
2021/12/10 12:27:17;;;;;;;11.48;6.65;;;5.40;99.90;;;;;;6187208;23;20095;-73
2021/12/10 12:29:52;;;;;;;12.07;6.50;;;5.50;99.90;;;;;;6186958;23;20025;-73
2021/12/10 12:32:26;;;;;;;12.90;6.78;;;5.50;99.90;;;;;;6187021;23;20017;-73
2021/12/10 12:34:52;;;;;;;12.85;7.00;;;5.50;99.90;;;;;;6187101;23;20025;-72
2021/12/10 12:37:19;;;;;;;13.30;6.88;;;5.50;99.90;;;;;;6187338;23;20017;-72
2021/12/10 12:39:50;;;;;;;17.60;6.80;;;5.50;99.90;;;;;;6161479;23;20017;-72
2021/12/10 12:42:34;;;;;;;12.95;6.53;;;5.60;99.90;;;;;;6187498;23;20021;-75
2021/12/10 12:45:04;;;;;;;15.50;7.15;;;5.50;99.90;;;;;;6186884;23;20407;-73
2021/12/10 12:47:36;;;;;;;13.70;6.32;;;5.60;99.90;;;;;;6187305;23;20025;-72
2021/12/10 12:50:17;;;;;;;11.70;6.65;;;5.40;99.90;;;;;;6187639;23;20088;-72
2021/12/10 12:52:44;;;;;;;11.23;6.40;;;5.50;99.90;;;;;;6187094;23;20032;-72
2021/12/10 12:55:25;;;;;;;14.45;6.40;;;5.40;99.90;;;;;;6187076;23;20013;-72
2021/12/10 12:58:11;;;;;;;14.50;7.50;;;5.50;99.90;;;;;;6189141;23;20021;-72
2021/12/10 13:01:16;;;;;;;12.63;7.40;;;5.50;99.90;;;;;;6162560;23;20028;-73
2021/12/10 13:03:48;;;;;;;11.50;6.23;;;5.50;99.90;;;;;;6162388;23;20021;-72
2021/12/10 13:06:27;;;;;;;12.20;6.32;;;5.50;99.90;;;;;;6189119;23;20360;-71
2021/12/10 13:09:08;;;;;;;10.07;7.20;;;5.50;99.90;;;;;;6188895;23;20024;-71